Sumiyoshimaru No11 — JJ3809 — position and weather

sailwx.info

Track history (hours):
 
Tides and Currents Weather Stations Pressure Air Temp Water Temp Dewpoint Dewpoint Depression Visibility Wind Speed Wind Dir Waves Ship Positions

Sumiyoshimaru No11

Last reported at 2018-Feb-19 03:27 UTC. Time now 2018-Feb-19 06:02 UTC.
Position N 34°07' E 132°45'.

Length 69 m.

MMSI: 431300097.

Date/timePositionNaut miles runAvg speedWind from/ knotsBaromVisibWave heightAir tempDewpointWater temp
2018-Feb-19 03:27N 34°07' E 132°45'511.6
2018-Feb-19 03:00N 34°05' E 132°39'711.0
2018-Feb-19 02:21N 34°03' E 132°31'410.3
2018-Feb-19 01:55N 34°05' E 132°27'3 0.3
2018-Feb-18 18:15N 34°08' E 132°28'3 8.6
2018-Feb-18 17:57N 34°06' E 132°27'4 9.7
2018-Feb-18 17:30N 34°03' E 132°31'5 9.8
2018-Feb-18 17:00N 34°04' E 132°37'87 8.7
2018-Feb-18 06:59N 34°25' E 134°19'5 9.6
2018-Feb-18 06:30N 34°26' E 134°24'5 9.8
2018-Feb-18 06:00N 34°28' E 134°30'5 9.8
2018-Feb-18 05:30N 34°30' E 134°35'5 9.7
2018-Feb-18 05:00N 34°31' E 134°41'510.2
2018-Feb-18 04:31N 34°33' E 134°47'510.6
2018-Feb-18 04:00N 34°35' E 134°53'510.1
2018-Feb-18 03:30N 34°37' E 134°58'510.1
2018-Feb-18 03:01N 34°36' E 135°04'510.3
2018-Feb-18 02:31N 34°37' E 135°10'510.5
2018-Feb-18 02:01N 34°38' E 135°17'5 9.9
2018-Feb-18 01:31N 34°38' E 135°23'4 8.2
2018-Feb-18 01:01N 34°40' E 135°27'0 0.1
2018-Feb-18 00:30N 34°40' E 135°27'0 0.0
2018-Feb-18 00:00N 34°40' E 135°27'0 0.0
2018-Feb-17 23:30N 34°40' E 135°27'0 0.0
2018-Feb-17 23:01N 34°40' E 135°27'0 0.0
2018-Feb-17 22:30N 34°40' E 135°27'0 0.1
2018-Feb-17 22:01N 34°40' E 135°27'0 0.0
2018-Feb-17 21:30N 34°40' E 135°27'0 0.0
2018-Feb-17 21:00N 34°40' E 135°27'0 0.0
2018-Feb-17 20:30N 34°40' E 135°27'4 7.1
2018-Feb-17 20:00N 34°38' E 135°24'510.6
2018-Feb-17 19:30N 34°36' E 135°18'611.3
2018-Feb-17 19:00N 34°35' E 135°11'612.5
2018-Feb-17 18:30N 34°35' E 135°03'613.0
2018-Feb-17 18:01N 34°36' E 134°56'713.5
2018-Feb-17 17:30N 34°33' E 134°48'612.0
2018-Feb-17 17:00N 34°30' E 134°41'611.5
2018-Feb-17 16:30N 34°28' E 134°35'611.3
2018-Feb-17 16:00N 34°26' E 134°28'611.3
2018-Feb-17 15:29N 34°24' E 134°22'611.6
2018-Feb-17 14:59N 34°24' E 134°15'611.6
2018-Feb-17 14:28N 34°26' E 134°08'7410.1
2018-Feb-17 07:07N 34°05' E 132°42'110.3
2018-Feb-17 07:01N 34°05' E 132°40'810.1
2018-Feb-17 06:13N 34°03' E 132°31'411.5
2018-Feb-17 05:50N 34°06' E 132°27'1 0.3
2018-Feb-17 01:32N 34°07' E 132°27'7 7.3
2018-Feb-17 00:32N 34°04' E 132°34'0 7.4
2018-Feb-17 00:31N 34°04' E 132°35'4 8.4
2018-Feb-17 00:01N 34°05' E 132°39'21 7.9
2018-Feb-16 21:21N 34°18' E 132°60'67 8.3
2018-Feb-16 13:14N 34°25' E 134°21'210.0
2018-Feb-16 13:00N 34°26' E 134°24'5 9.8
2018-Feb-16 12:30N 34°28' E 134°29'510.0
2018-Feb-16 12:01N 34°29' E 134°35'510.0
2018-Feb-16 11:30N 34°31' E 134°40'510.3
2018-Feb-16 11:00N 34°33' E 134°46'510.5
2018-Feb-16 10:30N 34°35' E 134°52'510.8
2018-Feb-16 10:00N 34°37' E 134°58'5 9.8
2018-Feb-16 09:30N 34°36' E 135°04'510.0
2018-Feb-16 09:00N 34°37' E 135°10'5 9.4
2018-Feb-16 08:30N 34°38' E 135°16'5 9.2
2018-Feb-16 08:00N 34°38' E 135°21'5 9.1
2018-Feb-16 07:31N 34°40' E 135°26'1 1.7
2018-Feb-16 07:01N 34°40' E 135°27'0 0.0
2018-Feb-16 06:31N 34°40' E 135°27'0 0.0
2018-Feb-16 06:00N 34°40' E 135°27'0 0.0
2018-Feb-16 05:30N 34°40' E 135°27'0 0.0
2018-Feb-16 05:00N 34°40' E 135°27'0 0.1
2018-Feb-16 04:31N 34°40' E 135°27'0 0.0
2018-Feb-16 04:01N 34°40' E 135°27'0 0.0
2018-Feb-16 03:30N 34°40' E 135°27'0 0.0
2018-Feb-16 03:01N 34°40' E 135°27'0 0.2
2018-Feb-16 02:30N 34°40' E 135°27'1 2.9
2018-Feb-16 02:00N 34°39' E 135°27'0 0.0
2018-Feb-16 01:30N 34°39' E 135°27'0 0.0
2018-Feb-16 01:01N 34°39' E 135°27'0 0.0
2018-Feb-16 00:30N 34°39' E 135°27'0 0.0
2018-Feb-16 00:00N 34°39' E 135°27'0 0.0
2018-Feb-15 23:30N 34°39' E 135°27'0 0.0
2018-Feb-15 23:01N 34°39' E 135°27'0 0.0
2018-Feb-15 22:31N 34°39' E 135°27'0 0.0
2018-Feb-15 22:00N 34°39' E 135°27'1 1.4
2018-Feb-15 21:30N 34°38' E 135°27'2 3.0
2018-Feb-15 21:01N 34°38' E 135°28'0 0.0
2018-Feb-15 20:31N 34°38' E 135°28'0 0.0
2018-Feb-15 20:01N 34°38' E 135°28'0 0.0
2018-Feb-15 19:30N 34°38' E 135°28'0 0.0
2018-Feb-15 19:00N 34°38' E 135°28'0 0.0
2018-Feb-15 18:31N 34°38' E 135°28'0 0.0
2018-Feb-15 18:00N 34°38' E 135°28'0 0.0
2018-Feb-15 17:30N 34°38' E 135°28'0 0.0
2018-Feb-15 17:01N 34°38' E 135°28'0 0.0
2018-Feb-15 16:30N 34°38' E 135°28'0 0.0
2018-Feb-15 15:59N 34°38' E 135°28'0 0.0
2018-Feb-15 15:31N 34°38' E 135°28'0 0.0
2018-Feb-15 15:00N 34°38' E 135°28'0 0.0
2018-Feb-15 14:30N 34°38' E 135°28'0 0.0
2018-Feb-15 14:00N 34°38' E 135°28'0 0.0
2018-Feb-15 13:30N 34°38' E 135°28'0 0.0
2018-Feb-15 13:01N 34°38' E 135°28'0 0.0
2018-Feb-15 12:31N 34°38' E 135°28'0 0.0
2018-Feb-15 12:00N 34°38' E 135°28'0 0.0
2018-Feb-15 11:30N 34°38' E 135°28'0 0.0
2018-Feb-15 11:00N 34°38' E 135°28'2 4.6
2018-Feb-15 10:30N 34°39' E 135°26'5 9.3
2018-Feb-15 10:01N 34°37' E 135°21'5 9.4
2018-Feb-15 09:30N 34°36' E 135°15'510.1
2018-Feb-15 09:01N 34°35' E 135°09'510.8
2018-Feb-15 08:30N 34°36' E 135°03'510.2
2018-Feb-15 08:01N 34°36' E 134°57'611.2
2018-Feb-15 07:30N 34°34' E 134°50'510.6
2018-Feb-15 07:00N 34°32' E 134°44'510.8
2018-Feb-15 06:30N 34°30' E 134°38'510.7
2018-Feb-15 06:00N 34°28' E 134°32'510.5
2018-Feb-15 05:30N 34°26' E 134°26'610.6
2018-Feb-15 04:55N 34°24' E 134°19'8010.7
2018-Feb-14 21:26N 34°01' E 132°47'511.5
2018-Feb-14 21:01N 33°58' E 132°43'510.6
2018-Feb-14 20:30N 33°54' E 132°38'610.5
2018-Feb-14 19:58N 33°50' E 132°33'610.3
2018-Feb-14 19:23N 33°46' E 132°28'410.2
2018-Feb-14 18:57N 33°43' E 132°25'23 9.6
2018-Feb-14 16:35N 33°26' E 132°06'1 8.9
2018-Feb-14 16:28N 33°26' E 132°05'4 8.9
2018-Feb-14 16:00N 33°22' E 132°01'4 7.3
2018-Feb-14 15:30N 33°19' E 131°60'5 9.3
2018-Feb-14 14:57N 33°14' E 131°59'3 0.9
2018-Feb-14 11:21N 33°12' E 131°56'410.1
2018-Feb-14 10:58N 33°15' E 131°58'510.3
2018-Feb-14 10:29N 33°20' E 131°59'510.4
2018-Feb-14 09:59N 33°25' E 132°01'2010.2
2018-Feb-14 08:01N 33°44' E 132°07'010.7
2018-Feb-14 08:00N 33°45' E 132°07'810.5
2018-Feb-14 07:15N 33°52' E 132°10'310.7
2018-Feb-14 06:58N 33°55' E 132°10'610.3
2018-Feb-14 06:20N 34°00' E 132°15'411.0
2018-Feb-14 06:00N 34°03' E 132°18'611.2
2018-Feb-14 05:29N 34°06' E 132°24'3 0.5
2018-Feb-14 00:16N 34°07' E 132°27'4 8.8
2018-Feb-13 23:52N 34°04' E 132°29'4 8.7
2018-Feb-13 23:23N 34°03' E 132°34'3 9.0
2018-Feb-13 23:00N 34°05' E 132°38'89 8.3
2018-Feb-13 12:19N 34°25' E 134°22'3 9.8
2018-Feb-13 12:00N 34°26' E 134°26'5 9.9
2018-Feb-13 11:30N 34°28' E 134°32'5 9.6
2018-Feb-13 11:01N 34°30' E 134°37'5 9.4
2018-Feb-13 10:30N 34°32' E 134°42'5 9.4
2018-Feb-13 10:00N 34°34' E 134°48'5 9.7
2018-Feb-13 09:30N 34°35' E 134°53'5 9.8
2018-Feb-13 09:00N 34°37' E 134°58'5 9.3
2018-Feb-13 08:31N 34°36' E 135°04'5 9.7
2018-Feb-13 08:00N 34°37' E 135°10'5 9.3
2018-Feb-13 07:30N 34°37' E 135°15'5 9.3
2018-Feb-13 07:00N 34°38' E 135°21'5 9.0
2018-Feb-13 06:30N 34°40' E 135°26'1 2.0
2018-Feb-13 06:00N 34°40' E 135°27'0 0.0
2018-Feb-13 05:30N 34°40' E 135°27'0 0.0
2018-Feb-13 05:00N 34°40' E 135°27'0 0.0
2018-Feb-13 04:30N 34°40' E 135°27'0 0.0
2018-Feb-13 04:01N 34°40' E 135°27'0 0.0
2018-Feb-13 03:30N 34°40' E 135°27'0 0.0
2018-Feb-13 03:00N 34°40' E 135°27'0 0.0
2018-Feb-13 02:30N 34°40' E 135°27'0 0.0
2018-Feb-13 02:00N 34°40' E 135°27'0 0.0
2018-Feb-13 01:30N 34°40' E 135°27'0 0.0
2018-Feb-13 01:00N 34°40' E 135°27'0 0.0
2018-Feb-13 00:30N 34°40' E 135°27'0 0.0
2018-Feb-12 23:55N 34°40' E 135°27'0 0.0
2018-Feb-12 22:40N 34°40' E 135°27'0 0.0
2018-Feb-12 22:30N 34°40' E 135°27'0 0.0
2018-Feb-12 22:00N 34°40' E 135°27'0 0.0
2018-Feb-12 17:05N 34°40' E 135°27'0 0.0
2018-Feb-12 17:00N 34°40' E 135°27'0 0.0
2018-Feb-12 16:31N 34°40' E 135°27'1 2.2
2018-Feb-12 16:00N 34°40' E 135°26'611.0
2018-Feb-12 15:30N 34°36' E 135°21'611.4
2018-Feb-12 15:00N 34°35' E 135°14'611.8
2018-Feb-12 14:30N 34°34' E 135°07'612.6
2018-Feb-12 14:00N 34°37' E 134°60'612.8
2018-Feb-12 13:30N 34°35' E 134°53'612.0
2018-Feb-12 13:01N 34°32' E 134°46'611.5
2018-Feb-12 12:30N 34°30' E 134°40'611.4
2018-Feb-12 12:00N 34°28' E 134°33'611.2
2018-Feb-12 11:31N 34°26' E 134°27'611.1
2018-Feb-12 11:01N 34°24' E 134°21'711.1
2018-Feb-12 10:24N 34°24' E 134°12'7410.5
2018-Feb-12 03:21N 34°07' E 132°45'411.1
2018-Feb-12 03:00N 34°05' E 132°41'611.2
2018-Feb-12 02:30N 34°03' E 132°35'710.4
2018-Feb-12 01:50N 34°05' E 132°27'3 0.5
2018-Feb-11 19:53N 34°08' E 132°28'0 1.1
2018-Feb-11 19:29N 34°08' E 132°28'4 7.4
2018-Feb-11 18:57N 34°04' E 132°29'4 8.5
2018-Feb-11 18:27N 34°03' E 132°34'4 9.1
2018-Feb-11 18:00N 34°05' E 132°39'86 8.8
2018-Feb-11 08:12N 34°25' E 134°20'3 9.6
2018-Feb-11 07:54N 34°26' E 134°23'4 9.4
2018-Feb-11 07:30N 34°27' E 134°28'5 9.5
2018-Feb-11 07:00N 34°29' E 134°33'5 9.0
2018-Feb-11 06:29N 34°31' E 134°38'4 8.7
2018-Feb-11 06:00N 34°32' E 134°43'4 8.8
2018-Feb-11 05:30N 34°34' E 134°48'4 8.2
2018-Feb-11 05:00N 34°35' E 134°52'4 7.7
2018-Feb-11 04:30N 34°37' E 134°57'4 7.1
2018-Feb-11 04:00N 34°37' E 135°01'3 6.5
2018-Feb-11 03:30N 34°36' E 135°05'4 8.2
2018-Feb-11 03:00N 34°36' E 135°10'4 8.7
2018-Feb-11 02:30N 34°37' E 135°15'4 8.8
2018-Feb-11 02:00N 34°38' E 135°20'4 8.7
2018-Feb-11 01:30N 34°39' E 135°25'2 4.1
2018-Feb-11 01:00N 34°40' E 135°27'0 0.0
2018-Feb-11 00:30N 34°40' E 135°27'0 0.0
2018-Feb-11 00:00N 34°40' E 135°27'0 0.0
2018-Feb-10 23:30N 34°40' E 135°27'0 0.0
2018-Feb-10 23:00N 34°40' E 135°27'0 0.0
2018-Feb-10 22:30N 34°40' E 135°27'0 0.0
2018-Feb-10 22:00N 34°40' E 135°27'0 0.0
2018-Feb-10 21:30N 34°40' E 135°27'0 0.0
2018-Feb-10 21:00N 34°40' E 135°27'0 0.0
2018-Feb-10 20:30N 34°40' E 135°27'0 0.0
2018-Feb-10 20:00N 34°40' E 135°27'0 0.0
2018-Feb-10 19:30N 34°40' E 135°27'0 0.0
2018-Feb-10 19:00N 34°40' E 135°27'0 0.0
2018-Feb-10 18:30N 34°40' E 135°27'0 0.0
2018-Feb-10 18:00N 34°40' E 135°27'0 0.0
2018-Feb-10 17:30N 34°40' E 135°27'0 0.0
2018-Feb-10 17:00N 34°40' E 135°27'0 0.0
2018-Feb-10 16:30N 34°40' E 135°27'3 6.9
2018-Feb-10 16:00N 34°38' E 135°24'511.0
2018-Feb-10 15:30N 34°36' E 135°18'611.2
2018-Feb-10 15:00N 34°35' E 135°11'612.0
2018-Feb-10 14:30N 34°35' E 135°04'612.4
2018-Feb-10 14:00N 34°36' E 134°56'713.4
2018-Feb-10 13:30N 34°33' E 134°49'612.2
2018-Feb-10 13:00N 34°31' E 134°42'612.0
2018-Feb-10 12:30N 34°28' E 134°35'611.7
2018-Feb-10 12:00N 34°26' E 134°28'611.9
2018-Feb-10 11:28N 34°24' E 134°21'8110.9
2018-Feb-10 04:02N 34°07' E 132°45'110.7
2018-Feb-10 03:56N 34°07' E 132°44'510.9
2018-Feb-10 03:30N 34°05' E 132°39'611.0
2018-Feb-10 03:00N 34°03' E 132°33'510.7
2018-Feb-10 02:29N 34°05' E 132°27'2 0.4
2018-Feb-09 22:24N 34°07' E 132°27'7 8.1
2018-Feb-09 21:30N 34°03' E 132°34'510.0
2018-Feb-09 21:00N 34°05' E 132°40'88 8.8
2018-Feb-09 11:00N 34°26' E 134°24'510.1
2018-Feb-09 10:30N 34°28' E 134°30'510.2
2018-Feb-09 10:00N 34°30' E 134°36'510.2
2018-Feb-09 09:30N 34°31' E 134°41'510.1
2018-Feb-09 09:00N 34°33' E 134°47'1110.6
2018-Feb-09 08:00N 34°37' E 134°59'510.3
2018-Feb-09 07:30N 34°36' E 135°05'1510.2
2018-Feb-09 06:00N 34°38' E 135°23'4 7.3
2018-Feb-09 05:30N 34°40' E 135°27'0 0.1
2018-Feb-09 05:00N 34°40' E 135°27'0 0.0
2018-Feb-09 04:30N 34°40' E 135°27'0 0.0
2018-Feb-09 04:00N 34°40' E 135°27'0 0.0
2018-Feb-09 03:30N 34°40' E 135°27'  
Track history (hours):
 
Tides and Currents Weather Stations Pressure Air Temp Water Temp Dewpoint Dewpoint Depression Visibility Wind Speed Wind Dir Waves Ship Positions

Sumiyoshimaru No11

Last reported at 2018-Feb-19 03:27 UTC. Time now 2018-Feb-19 06:02 UTC.
Position N 34°07' E 132°45'.

Length 69 m.

MMSI: 431300097.

Date/timePositionNaut miles runAvg speedWind from/ knotsBaromVisibWave heightAir tempDewpointWater temp
2018-Feb-19 03:27N 34°07' E 132°45'511.6
2018-Feb-19 03:00N 34°05' E 132°39'711.0
2018-Feb-19 02:21N 34°03' E 132°31'410.3
2018-Feb-19 01:55N 34°05' E 132°27'3 0.3
2018-Feb-18 18:15N 34°08' E 132°28'3 8.6
2018-Feb-18 17:57N 34°06' E 132°27'4 9.7
2018-Feb-18 17:30N 34°03' E 132°31'5 9.8
2018-Feb-18 17:00N 34°04' E 132°37'87 8.7
2018-Feb-18 06:59N 34°25' E 134°19'5 9.6
2018-Feb-18 06:30N 34°26' E 134°24'5 9.8
2018-Feb-18 06:00N 34°28' E 134°30'5 9.8
2018-Feb-18 05:30N 34°30' E 134°35'5 9.7
2018-Feb-18 05:00N 34°31' E 134°41'510.2
2018-Feb-18 04:31N 34°33' E 134°47'510.6
2018-Feb-18 04:00N 34°35' E 134°53'510.1
2018-Feb-18 03:30N 34°37' E 134°58'510.1
2018-Feb-18 03:01N 34°36' E 135°04'510.3
2018-Feb-18 02:31N 34°37' E 135°10'510.5
2018-Feb-18 02:01N 34°38' E 135°17'5 9.9
2018-Feb-18 01:31N 34°38' E 135°23'4 8.2
2018-Feb-18 01:01N 34°40' E 135°27'0 0.1
2018-Feb-18 00:30N 34°40' E 135°27'0 0.0
2018-Feb-18 00:00N 34°40' E 135°27'0 0.0
2018-Feb-17 23:30N 34°40' E 135°27'0 0.0
2018-Feb-17 23:01N 34°40' E 135°27'0 0.0
2018-Feb-17 22:30N 34°40' E 135°27'0 0.1
2018-Feb-17 22:01N 34°40' E 135°27'0 0.0
2018-Feb-17 21:30N 34°40' E 135°27'0 0.0
2018-Feb-17 21:00N 34°40' E 135°27'0 0.0
2018-Feb-17 20:30N 34°40' E 135°27'4 7.1
2018-Feb-17 20:00N 34°38' E 135°24'510.6
2018-Feb-17 19:30N 34°36' E 135°18'611.3
2018-Feb-17 19:00N 34°35' E 135°11'612.5
2018-Feb-17 18:30N 34°35' E 135°03'613.0
2018-Feb-17 18:01N 34°36' E 134°56'713.5
2018-Feb-17 17:30N 34°33' E 134°48'612.0
2018-Feb-17 17:00N 34°30' E 134°41'611.5
2018-Feb-17 16:30N 34°28' E 134°35'611.3
2018-Feb-17 16:00N 34°26' E 134°28'611.3
2018-Feb-17 15:29N 34°24' E 134°22'611.6
2018-Feb-17 14:59N 34°24' E 134°15'611.6
2018-Feb-17 14:28N 34°26' E 134°08'7410.1
2018-Feb-17 07:07N 34°05' E 132°42'110.3
2018-Feb-17 07:01N 34°05' E 132°40'810.1
2018-Feb-17 06:13N 34°03' E 132°31'411.5
2018-Feb-17 05:50N 34°06' E 132°27'1 0.3
2018-Feb-17 01:32N 34°07' E 132°27'7 7.3
2018-Feb-17 00:32N 34°04' E 132°34'0 7.4
2018-Feb-17 00:31N 34°04' E 132°35'4 8.4
2018-Feb-17 00:01N 34°05' E 132°39'21 7.9
2018-Feb-16 21:21N 34°18' E 132°60'67 8.3
2018-Feb-16 13:14N 34°25' E 134°21'210.0
2018-Feb-16 13:00N 34°26' E 134°24'5 9.8
2018-Feb-16 12:30N 34°28' E 134°29'510.0
2018-Feb-16 12:01N 34°29' E 134°35'510.0
2018-Feb-16 11:30N 34°31' E 134°40'510.3
2018-Feb-16 11:00N 34°33' E 134°46'510.5
2018-Feb-16 10:30N 34°35' E 134°52'510.8
2018-Feb-16 10:00N 34°37' E 134°58'5 9.8
2018-Feb-16 09:30N 34°36' E 135°04'510.0
2018-Feb-16 09:00N 34°37' E 135°10'5 9.4
2018-Feb-16 08:30N 34°38' E 135°16'5 9.2
2018-Feb-16 08:00N 34°38' E 135°21'5 9.1
2018-Feb-16 07:31N 34°40' E 135°26'1 1.7
2018-Feb-16 07:01N 34°40' E 135°27'0 0.0
2018-Feb-16 06:31N 34°40' E 135°27'0 0.0
2018-Feb-16 06:00N 34°40' E 135°27'0 0.0
2018-Feb-16 05:30N 34°40' E 135°27'0 0.0
2018-Feb-16 05:00N 34°40' E 135°27'0 0.1
2018-Feb-16 04:31N 34°40' E 135°27'0 0.0
2018-Feb-16 04:01N 34°40' E 135°27'0 0.0
2018-Feb-16 03:30N 34°40' E 135°27'0 0.0
2018-Feb-16 03:01N 34°40' E 135°27'0 0.2
2018-Feb-16 02:30N 34°40' E 135°27'1 2.9
2018-Feb-16 02:00N 34°39' E 135°27'0 0.0
2018-Feb-16 01:30N 34°39' E 135°27'0 0.0
2018-Feb-16 01:01N 34°39' E 135°27'0 0.0
2018-Feb-16 00:30N 34°39' E 135°27'0 0.0
2018-Feb-16 00:00N 34°39' E 135°27'0 0.0
2018-Feb-15 23:30N 34°39' E 135°27'0 0.0
2018-Feb-15 23:01N 34°39' E 135°27'0 0.0
2018-Feb-15 22:31N 34°39' E 135°27'0 0.0
2018-Feb-15 22:00N 34°39' E 135°27'1 1.4
2018-Feb-15 21:30N 34°38' E 135°27'2 3.0
2018-Feb-15 21:01N 34°38' E 135°28'0 0.0
2018-Feb-15 20:31N 34°38' E 135°28'0 0.0
2018-Feb-15 20:01N 34°38' E 135°28'0 0.0
2018-Feb-15 19:30N 34°38' E 135°28'0 0.0
2018-Feb-15 19:00N 34°38' E 135°28'0 0.0
2018-Feb-15 18:31N 34°38' E 135°28'0 0.0
2018-Feb-15 18:00N 34°38' E 135°28'0 0.0
2018-Feb-15 17:30N 34°38' E 135°28'0 0.0
2018-Feb-15 17:01N 34°38' E 135°28'0 0.0
2018-Feb-15 16:30N 34°38' E 135°28'0 0.0
2018-Feb-15 15:59N 34°38' E 135°28'0 0.0
2018-Feb-15 15:31N 34°38' E 135°28'0 0.0
2018-Feb-15 15:00N 34°38' E 135°28'0 0.0
2018-Feb-15 14:30N 34°38' E 135°28'0 0.0
2018-Feb-15 14:00N 34°38' E 135°28'0 0.0
2018-Feb-15 13:30N 34°38' E 135°28'0 0.0
2018-Feb-15 13:01N 34°38' E 135°28'0 0.0
2018-Feb-15 12:31N 34°38' E 135°28'0 0.0
2018-Feb-15 12:00N 34°38' E 135°28'0 0.0
2018-Feb-15 11:30N 34°38' E 135°28'0 0.0
2018-Feb-15 11:00N 34°38' E 135°28'2 4.6
2018-Feb-15 10:30N 34°39' E 135°26'5 9.3
2018-Feb-15 10:01N 34°37' E 135°21'5 9.4
2018-Feb-15 09:30N 34°36' E 135°15'510.1
2018-Feb-15 09:01N 34°35' E 135°09'510.8
2018-Feb-15 08:30N 34°36' E 135°03'510.2
2018-Feb-15 08:01N 34°36' E 134°57'611.2
2018-Feb-15 07:30N 34°34' E 134°50'510.6
2018-Feb-15 07:00N 34°32' E 134°44'510.8
2018-Feb-15 06:30N 34°30' E 134°38'510.7
2018-Feb-15 06:00N 34°28' E 134°32'510.5
2018-Feb-15 05:30N 34°26' E 134°26'610.6
2018-Feb-15 04:55N 34°24' E 134°19'8010.7
2018-Feb-14 21:26N 34°01' E 132°47'511.5
2018-Feb-14 21:01N 33°58' E 132°43'510.6
2018-Feb-14 20:30N 33°54' E 132°38'610.5
2018-Feb-14 19:58N 33°50' E 132°33'610.3
2018-Feb-14 19:23N 33°46' E 132°28'410.2
2018-Feb-14 18:57N 33°43' E 132°25'23 9.6
2018-Feb-14 16:35N 33°26' E 132°06'1 8.9
2018-Feb-14 16:28N 33°26' E 132°05'4 8.9
2018-Feb-14 16:00N 33°22' E 132°01'4 7.3
2018-Feb-14 15:30N 33°19' E 131°60'5 9.3
2018-Feb-14 14:57N 33°14' E 131°59'3 0.9
2018-Feb-14 11:21N 33°12' E 131°56'410.1
2018-Feb-14 10:58N 33°15' E 131°58'510.3
2018-Feb-14 10:29N 33°20' E 131°59'510.4
2018-Feb-14 09:59N 33°25' E 132°01'2010.2
2018-Feb-14 08:01N 33°44' E 132°07'010.7
2018-Feb-14 08:00N 33°45' E 132°07'810.5
2018-Feb-14 07:15N 33°52' E 132°10'310.7
2018-Feb-14 06:58N 33°55' E 132°10'610.3
2018-Feb-14 06:20N 34°00' E 132°15'411.0
2018-Feb-14 06:00N 34°03' E 132°18'611.2
2018-Feb-14 05:29N 34°06' E 132°24'3 0.5
2018-Feb-14 00:16N 34°07' E 132°27'4 8.8
2018-Feb-13 23:52N 34°04' E 132°29'4 8.7
2018-Feb-13 23:23N 34°03' E 132°34'3 9.0
2018-Feb-13 23:00N 34°05' E 132°38'89 8.3
2018-Feb-13 12:19N 34°25' E 134°22'3 9.8
2018-Feb-13 12:00N 34°26' E 134°26'5 9.9
2018-Feb-13 11:30N 34°28' E 134°32'5 9.6
2018-Feb-13 11:01N 34°30' E 134°37'5 9.4
2018-Feb-13 10:30N 34°32' E 134°42'5 9.4
2018-Feb-13 10:00N 34°34' E 134°48'5 9.7
2018-Feb-13 09:30N 34°35' E 134°53'5 9.8
2018-Feb-13 09:00N 34°37' E 134°58'5 9.3
2018-Feb-13 08:31N 34°36' E 135°04'5 9.7
2018-Feb-13 08:00N 34°37' E 135°10'5 9.3
2018-Feb-13 07:30N 34°37' E 135°15'5 9.3
2018-Feb-13 07:00N 34°38' E 135°21'5 9.0
2018-Feb-13 06:30N 34°40' E 135°26'1 2.0
2018-Feb-13 06:00N 34°40' E 135°27'0 0.0
2018-Feb-13 05:30N 34°40' E 135°27'0 0.0
2018-Feb-13 05:00N 34°40' E 135°27'0 0.0
2018-Feb-13 04:30N 34°40' E 135°27'0 0.0
2018-Feb-13 04:01N 34°40' E 135°27'0 0.0
2018-Feb-13 03:30N 34°40' E 135°27'0 0.0
2018-Feb-13 03:00N 34°40' E 135°27'0 0.0
2018-Feb-13 02:30N 34°40' E 135°27'0 0.0
2018-Feb-13 02:00N 34°40' E 135°27'0 0.0
2018-Feb-13 01:30N 34°40' E 135°27'0 0.0
2018-Feb-13 01:00N 34°40' E 135°27'0 0.0
2018-Feb-13 00:30N 34°40' E 135°27'0 0.0
2018-Feb-12 23:55N 34°40' E 135°27'0 0.0
2018-Feb-12 22:40N 34°40' E 135°27'0 0.0
2018-Feb-12 22:30N 34°40' E 135°27'0 0.0
2018-Feb-12 22:00N 34°40' E 135°27'0 0.0
2018-Feb-12 17:05N 34°40' E 135°27'0 0.0
2018-Feb-12 17:00N 34°40' E 135°27'0 0.0
2018-Feb-12 16:31N 34°40' E 135°27'1 2.2
2018-Feb-12 16:00N 34°40' E 135°26'611.0
2018-Feb-12 15:30N 34°36' E 135°21'611.4
2018-Feb-12 15:00N 34°35' E 135°14'611.8
2018-Feb-12 14:30N 34°34' E 135°07'612.6
2018-Feb-12 14:00N 34°37' E 134°60'612.8
2018-Feb-12 13:30N 34°35' E 134°53'612.0
2018-Feb-12 13:01N 34°32' E 134°46'611.5
2018-Feb-12 12:30N 34°30' E 134°40'611.4
2018-Feb-12 12:00N 34°28' E 134°33'611.2
2018-Feb-12 11:31N 34°26' E 134°27'611.1
2018-Feb-12 11:01N 34°24' E 134°21'711.1
2018-Feb-12 10:24N 34°24' E 134°12'7410.5
2018-Feb-12 03:21N 34°07' E 132°45'411.1
2018-Feb-12 03:00N 34°05' E 132°41'611.2
2018-Feb-12 02:30N 34°03' E 132°35'710.4
2018-Feb-12 01:50N 34°05' E 132°27'3 0.5
2018-Feb-11 19:53N 34°08' E 132°28'0 1.1
2018-Feb-11 19:29N 34°08' E 132°28'4 7.4
2018-Feb-11 18:57N 34°04' E 132°29'4 8.5
2018-Feb-11 18:27N 34°03' E 132°34'4 9.1
2018-Feb-11 18:00N 34°05' E 132°39'86 8.8
2018-Feb-11 08:12N 34°25' E 134°20'3 9.6
2018-Feb-11 07:54N 34°26' E 134°23'4 9.4
2018-Feb-11 07:30N 34°27' E 134°28'5 9.5
2018-Feb-11 07:00N 34°29' E 134°33'5 9.0
2018-Feb-11 06:29N 34°31' E 134°38'4 8.7
2018-Feb-11 06:00N 34°32' E 134°43'4 8.8
2018-Feb-11 05:30N 34°34' E 134°48'4 8.2
2018-Feb-11 05:00N 34°35' E 134°52'4 7.7
2018-Feb-11 04:30N 34°37' E 134°57'4 7.1
2018-Feb-11 04:00N 34°37' E 135°01'3 6.5
2018-Feb-11 03:30N 34°36' E 135°05'4 8.2
2018-Feb-11 03:00N 34°36' E 135°10'4 8.7
2018-Feb-11 02:30N 34°37' E 135°15'4 8.8
2018-Feb-11 02:00N 34°38' E 135°20'4 8.7
2018-Feb-11 01:30N 34°39' E 135°25'2 4.1
2018-Feb-11 01:00N 34°40' E 135°27'0 0.0
2018-Feb-11 00:30N 34°40' E 135°27'0 0.0
2018-Feb-11 00:00N 34°40' E 135°27'0 0.0
2018-Feb-10 23:30N 34°40' E 135°27'0 0.0
2018-Feb-10 23:00N 34°40' E 135°27'0 0.0
2018-Feb-10 22:30N 34°40' E 135°27'0 0.0
2018-Feb-10 22:00N 34°40' E 135°27'0 0.0
2018-Feb-10 21:30N 34°40' E 135°27'0 0.0
2018-Feb-10 21:00N 34°40' E 135°27'0 0.0
2018-Feb-10 20:30N 34°40' E 135°27'0 0.0
2018-Feb-10 20:00N 34°40' E 135°27'0 0.0
2018-Feb-10 19:30N 34°40' E 135°27'0 0.0
2018-Feb-10 19:00N 34°40' E 135°27'0 0.0
2018-Feb-10 18:30N 34°40' E 135°27'0 0.0
2018-Feb-10 18:00N 34°40' E 135°27'0 0.0
2018-Feb-10 17:30N 34°40' E 135°27'0 0.0
2018-Feb-10 17:00N 34°40' E 135°27'0 0.0
2018-Feb-10 16:30N 34°40' E 135°27'3 6.9
2018-Feb-10 16:00N 34°38' E 135°24'511.0
2018-Feb-10 15:30N 34°36' E 135°18'611.2
2018-Feb-10 15:00N 34°35' E 135°11'612.0
2018-Feb-10 14:30N 34°35' E 135°04'612.4
2018-Feb-10 14:00N 34°36' E 134°56'713.4
2018-Feb-10 13:30N 34°33' E 134°49'612.2
2018-Feb-10 13:00N 34°31' E 134°42'612.0
2018-Feb-10 12:30N 34°28' E 134°35'611.7
2018-Feb-10 12:00N 34°26' E 134°28'611.9
2018-Feb-10 11:28N 34°24' E 134°21'8110.9
2018-Feb-10 04:02N 34°07' E 132°45'110.7
2018-Feb-10 03:56N 34°07' E 132°44'510.9
2018-Feb-10 03:30N 34°05' E 132°39'611.0
2018-Feb-10 03:00N 34°03' E 132°33'510.7
2018-Feb-10 02:29N 34°05' E 132°27'2 0.4
2018-Feb-09 22:24N 34°07' E 132°27'7 8.1
2018-Feb-09 21:30N 34°03' E 132°34'510.0
2018-Feb-09 21:00N 34°05' E 132°40'88 8.8
2018-Feb-09 11:00N 34°26' E 134°24'510.1
2018-Feb-09 10:30N 34°28' E 134°30'510.2
2018-Feb-09 10:00N 34°30' E 134°36'510.2
2018-Feb-09 09:30N 34°31' E 134°41'510.1
2018-Feb-09 09:00N 34°33' E 134°47'1110.6
2018-Feb-09 08:00N 34°37' E 134°59'510.3
2018-Feb-09 07:30N 34°36' E 135°05'1510.2
2018-Feb-09 06:00N 34°38' E 135°23'4 7.3
2018-Feb-09 05:30N 34°40' E 135°27'0 0.1
2018-Feb-09 05:00N 34°40' E 135°27'0 0.0
2018-Feb-09 04:30N 34°40' E 135°27'0 0.0
2018-Feb-09 04:00N 34°40' E 135°27'0 0.0
2018-Feb-09 03:30N 34°40' E 135°27'  

Dump ship's entire track history